createdAt,value
2022-12-28T00:00:34.071Z,4.78
2022-12-28T00:06:53.022Z,3.78
2022-12-28T00:10:05.454Z,3.53
2022-12-28T00:20:03.127Z,3.33
2022-12-28T00:22:29.792Z,3.00
2022-12-28T00:24:56.421Z,5.18
2022-12-28T00:27:23.089Z,7.28
2022-12-28T00:29:49.719Z,3.53
2022-12-28T00:32:16.408Z,3.78
2022-12-28T00:34:43.066Z,2.88
2022-12-28T00:37:13.210Z,5.30
2022-12-28T00:39:45.581Z,3.40
2022-12-28T00:42:12.269Z,4.22
2022-12-28T00:44:40.746Z,3.35
2022-12-28T00:47:07.441Z,5.40
2022-12-28T00:49:34.167Z,3.60
2022-12-28T00:52:00.808Z,3.40
2022-12-28T00:54:39.544Z,3.38
2022-12-28T00:57:07.231Z,5.20
2022-12-28T00:59:33.961Z,4.18
2022-12-28T01:02:00.882Z,4.13
2022-12-28T01:04:27.646Z,4.30
2022-12-28T01:06:54.356Z,3.53
2022-12-28T01:09:21.011Z,3.72
2022-12-28T01:11:47.651Z,3.50
2022-12-28T01:14:58.619Z,5.03
2022-12-28T01:17:25.253Z,3.80
2022-12-28T01:19:54.044Z,4.35
2022-12-28T01:26:25.564Z,4.85
2022-12-28T01:29:11.651Z,3.33
2022-12-28T01:31:38.395Z,2.90
2022-12-28T01:34:05.090Z,4.20
2022-12-28T01:36:55.785Z,5.07
2022-12-28T01:39:22.510Z,4.57
2022-12-28T01:41:49.161Z,3.90
2022-12-28T01:44:16.837Z,4.00
2022-12-28T01:46:52.522Z,3.50
2022-12-28T01:49:26.572Z,4.68
2022-12-28T01:52:32.915Z,3.45
2022-12-28T01:58:50.302Z,2.67
2022-12-28T02:02:20.986Z,3.47
2022-12-28T02:05:32.641Z,3.40
2022-12-28T02:08:11.603Z,3.28
2022-12-28T02:10:45.733Z,3.42
2022-12-28T02:13:16.520Z,3.70
2022-12-28T02:15:43.916Z,3.55
2022-12-28T02:18:12.611Z,3.38
2022-12-28T02:25:13.095Z,3.70
2022-12-28T02:28:08.216Z,3.83
2022-12-28T02:31:04.188Z,2.63
2022-12-28T02:33:57.114Z,4.50
2022-12-28T02:37:27.623Z,4.95
2022-12-28T02:40:08.104Z,3.25
2022-12-28T02:42:37.944Z,2.97
2022-12-28T02:45:23.310Z,3.00
2022-12-28T02:48:10.433Z,4.40
2022-12-28T02:51:17.820Z,5.15
2022-12-28T02:58:23.875Z,3.92
2022-12-28T03:04:39.959Z,3.30
2022-12-28T03:08:13.409Z,3.65
2022-12-28T03:14:49.215Z,2.90
2022-12-28T03:17:38.738Z,3.17
2022-12-28T03:28:35.009Z,5.45
2022-12-28T03:31:07.096Z,3.75
2022-12-28T03:33:37.628Z,3.45
2022-12-28T03:36:22.222Z,2.33
2022-12-28T03:38:55.146Z,3.63
2022-12-28T03:41:33.663Z,2.78
2022-12-28T03:44:13.316Z,4.93
2022-12-28T03:47:07.902Z,3.50
2022-12-28T03:49:35.091Z,3.17
2022-12-28T03:52:02.711Z,2.80
2022-12-28T04:24:57.511Z,2.90
2022-12-28T04:27:24.250Z,3.13
2022-12-28T04:33:41.704Z,3.60
2022-12-28T04:36:17.771Z,4.05
2022-12-28T04:38:44.439Z,3.85
2022-12-28T04:52:42.724Z,3.65
2022-12-28T04:56:06.530Z,3.05
2022-12-28T04:58:33.562Z,3.20
2022-12-28T05:01:04.704Z,3.13
2022-12-28T05:03:31.670Z,4.25
2022-12-28T05:06:07.568Z,3.65
2022-12-28T05:08:38.410Z,3.13
2022-12-28T05:11:11.897Z,2.45
2022-12-28T05:13:38.618Z,3.30
2022-12-28T05:16:08.110Z,3.55
2022-12-28T05:18:35.467Z,3.55
2022-12-28T05:21:06.790Z,2.33
2022-12-28T05:23:35.266Z,3.10
2022-12-28T05:29:42.801Z,2.70
2022-12-28T05:43:58.596Z,2.88
2022-12-28T05:51:03.808Z,3.00
2022-12-28T05:53:44.884Z,5.28
2022-12-28T05:56:14.974Z,3.00
2022-12-28T05:58:43.171Z,2.78
2022-12-28T06:05:00.151Z,3.40
2022-12-28T06:21:19.533Z,5.05
2022-12-28T06:24:14.540Z,3.30
2022-12-28T06:30:37.516Z,2.22
2022-12-28T06:33:15.269Z,3.13
2022-12-28T06:35:41.960Z,6.47
2022-12-28T06:38:08.614Z,2.88
2022-12-28T06:41:11.303Z,3.40
2022-12-28T06:43:22.136Z,4.20
2022-12-28T06:45:58.199Z,2.67
2022-12-28T06:52:08.308Z,3.72
2022-12-28T07:02:25.935Z,4.03
2022-12-28T07:04:52.745Z,2.80
2022-12-28T07:08:06.401Z,3.58
2022-12-28T07:14:59.901Z,3.55
2022-12-28T07:21:31.026Z,3.67
2022-12-28T07:23:59.944Z,2.95
2022-12-28T07:26:49.571Z,4.38
2022-12-28T07:29:18.983Z,4.28
2022-12-28T07:31:46.578Z,4.32
2022-12-28T07:34:50.553Z,3.40
2022-12-28T07:37:17.207Z,4.13
2022-12-28T07:40:00.128Z,3.65
2022-12-28T07:43:20.894Z,3.90
2022-12-28T07:45:47.586Z,4.20
2022-12-28T07:48:14.282Z,3.92
2022-12-28T07:51:41.320Z,5.28
2022-12-28T07:54:15.646Z,4.80
2022-12-28T08:03:15.673Z,5.97
2022-12-28T08:05:42.541Z,2.97
2022-12-28T08:15:39.943Z,3.45
2022-12-28T08:18:54.639Z,4.28
2022-12-28T08:22:19.764Z,3.30
2022-12-28T08:25:23.574Z,3.40
2022-12-28T08:27:50.242Z,3.30
2022-12-28T08:30:29.930Z,3.70
2022-12-28T08:33:07.974Z,3.83
2022-12-28T08:35:34.629Z,3.95
2022-12-28T08:38:01.395Z,5.68
2022-12-28T08:40:30.002Z,6.22
2022-12-28T08:43:01.367Z,7.43
2022-12-28T08:45:29.395Z,8.05
2022-12-28T08:47:56.262Z,8.20
2022-12-28T08:50:29.569Z,8.80
2022-12-28T08:53:54.128Z,8.73
2022-12-28T08:56:31.725Z,9.52
2022-12-28T08:59:05.353Z,11.05
2022-12-28T09:01:40.844Z,9.68
2022-12-28T09:05:48.948Z,8.98
2022-12-28T09:08:19.411Z,9.52
2022-12-28T09:10:46.057Z,10.63
2022-12-28T09:13:33.931Z,9.90
2022-12-28T09:16:03.207Z,9.40
2022-12-28T09:18:30.394Z,9.98
2022-12-28T09:21:32.983Z,9.70
2022-12-28T09:24:12.419Z,14.07
2022-12-28T09:26:39.083Z,7.10
2022-12-28T09:29:08.949Z,6.25
2022-12-28T09:31:37.343Z,8.15
2022-12-28T09:34:56.082Z,6.20
2022-12-28T09:37:22.751Z,5.85
2022-12-28T09:39:49.448Z,3.85
2022-12-28T09:42:25.468Z,4.30
2022-12-28T09:44:59.657Z,7.05
2022-12-28T09:47:38.687Z,5.07
2022-12-28T09:50:18.465Z,4.80
2022-12-28T09:53:03.673Z,8.27
2022-12-28T09:55:31.619Z,10.68
2022-12-28T09:58:17.502Z,8.13
2022-12-28T10:00:47.909Z,8.82
2022-12-28T10:03:29.281Z,5.82
2022-12-28T10:05:58.030Z,3.35
2022-12-28T10:08:26.471Z,2.20
2022-12-28T10:11:18.987Z,3.00
2022-12-28T10:17:37.062Z,2.05
2022-12-28T10:20:03.882Z,2.80
2022-12-28T10:27:22.843Z,3.15
2022-12-28T10:30:43.665Z,3.72
2022-12-28T10:41:15.901Z,3.10
2022-12-28T10:51:59.905Z,2.92
2022-12-28T10:54:28.109Z,3.42
2022-12-28T10:57:18.964Z,3.25
2022-12-28T10:59:50.857Z,3.22
2022-12-28T11:06:26.271Z,4.57
2022-12-28T11:09:13.089Z,4.00
2022-12-28T11:11:40.914Z,4.22
2022-12-28T11:14:30.795Z,4.88
2022-12-28T11:16:58.202Z,4.13
2022-12-28T11:19:25.738Z,4.10
2022-12-28T11:22:34.174Z,4.90
2022-12-28T11:25:02.214Z,5.30
2022-12-28T11:27:28.949Z,6.03
2022-12-28T11:30:29.532Z,5.43
2022-12-28T11:33:48.982Z,4.25
2022-12-28T11:36:28.371Z,2.88
2022-12-28T11:38:56.721Z,1.52
2022-12-28T11:41:33.900Z,1.30
2022-12-28T11:51:34.170Z,0.20
2022-12-28T11:55:00.701Z,0.43
2022-12-28T11:57:55.411Z,0.30
2022-12-28T12:00:49.989Z,0.63
2022-12-28T12:03:17.721Z,0.20
2022-12-28T12:06:03.763Z,0.22
2022-12-28T12:08:34.103Z,0.25
2022-12-28T12:11:26.875Z,0.30
2022-12-28T12:13:54.442Z,0.50
2022-12-28T12:16:33.978Z,0.35
2022-12-28T12:19:01.493Z,0.30
2022-12-28T12:21:28.115Z,0.32
2022-12-28T12:28:26.478Z,0.20
2022-12-28T12:31:30.566Z,0.35
2022-12-28T12:34:06.014Z,0.40
2022-12-28T12:44:50.760Z,0.65
2022-12-28T12:56:22.079Z,1.55
2022-12-28T13:07:05.242Z,1.88
2022-12-28T13:10:16.617Z,2.30
2022-12-28T13:21:37.536Z,3.85
2022-12-28T13:24:17.478Z,2.40
2022-12-28T13:26:44.298Z,4.43
2022-12-28T13:29:39.626Z,2.53
2022-12-28T13:32:53.240Z,3.72
2022-12-28T13:39:12.876Z,3.72
2022-12-28T13:42:15.111Z,2.70
2022-12-28T13:48:32.149Z,2.17
2022-12-28T13:50:58.931Z,2.45
2022-12-28T13:53:50.426Z,2.38
2022-12-28T14:00:48.184Z,2.53
2022-12-28T14:03:41.418Z,3.92
2022-12-28T14:06:13.248Z,3.45
2022-12-28T14:08:40.301Z,3.50
2022-12-28T14:19:48.366Z,2.35
2022-12-28T14:23:27.506Z,2.55
2022-12-28T14:26:24.281Z,2.25
2022-12-28T14:37:31.847Z,2.55
2022-12-28T14:40:47.175Z,2.38
2022-12-28T14:43:23.036Z,2.20
2022-12-28T14:53:20.735Z,1.17
2022-12-28T14:56:19.277Z,2.08
2022-12-28T15:15:26.900Z,2.70
2022-12-28T15:17:53.585Z,2.47
2022-12-28T15:24:34.250Z,2.47
2022-12-28T15:27:21.599Z,2.15
2022-12-28T15:30:18.297Z,1.50
2022-12-28T15:32:49.018Z,2.83
2022-12-28T15:38:57.090Z,2.33
2022-12-28T15:41:42.291Z,3.45
2022-12-28T15:44:54.869Z,2.17
2022-12-28T15:47:22.209Z,2.30
2022-12-28T15:53:59.843Z,2.08
2022-12-28T15:56:35.302Z,2.38
2022-12-28T15:59:04.461Z,2.38
2022-12-28T16:01:32.277Z,1.80
2022-12-28T16:04:01.293Z,1.92
2022-12-28T16:07:20.220Z,2.92
2022-12-28T16:09:47.040Z,1.52
2022-12-28T16:13:44.486Z,3.53
2022-12-28T16:17:57.241Z,3.75
2022-12-28T16:22:04.159Z,2.15
2022-12-28T16:28:09.554Z,2.28
2022-12-28T16:30:48.614Z,1.30
2022-12-28T16:41:34.731Z,2.40
2022-12-28T16:51:34.072Z,2.70
2022-12-28T16:58:11.699Z,2.10
2022-12-28T17:08:27.147Z,2.35
2022-12-28T17:15:46.829Z,2.05
2022-12-28T17:18:13.986Z,2.22
2022-12-28T17:20:40.957Z,1.90
2022-12-28T17:30:49.189Z,2.05
2022-12-28T17:34:00.660Z,1.95
2022-12-28T17:36:27.662Z,1.20
2022-12-28T17:43:18.715Z,1.42
2022-12-28T17:45:57.456Z,1.20
2022-12-28T17:48:55.080Z,4.10
2022-12-28T17:56:05.785Z,3.40
2022-12-28T17:58:33.075Z,2.80
2022-12-28T18:04:51.379Z,2.78
2022-12-28T18:07:55.793Z,2.72
2022-12-28T18:10:22.951Z,1.83
2022-12-28T18:16:40.355Z,3.35
2022-12-28T18:19:35.459Z,2.40
2022-12-28T18:22:02.262Z,2.28
2022-12-28T18:24:29.461Z,2.53
2022-12-28T18:30:40.108Z,3.00
2022-12-28T18:33:24.112Z,2.33
2022-12-28T18:36:17.475Z,2.67
2022-12-28T18:39:03.038Z,2.72
2022-12-28T18:41:48.930Z,2.80
2022-12-28T18:44:15.712Z,1.55
2022-12-28T18:47:02.771Z,3.05
2022-12-28T18:50:15.716Z,2.78
2022-12-28T18:53:04.966Z,1.77
2022-12-28T18:56:07.666Z,2.03
2022-12-28T18:58:56.542Z,1.67
2022-12-28T19:09:18.956Z,2.10
2022-12-28T19:16:00.407Z,2.00
2022-12-28T19:18:27.862Z,2.45
2022-12-28T19:20:59.240Z,3.05
2022-12-28T19:24:23.580Z,1.90
2022-12-28T19:26:51.339Z,2.00
2022-12-28T19:29:43.142Z,1.98
2022-12-28T19:32:09.839Z,1.40
2022-12-28T19:34:46.737Z,2.53
2022-12-28T19:37:13.397Z,2.45
2022-12-28T19:39:40.226Z,2.00
2022-12-28T19:50:45.626Z,1.40
2022-12-28T19:53:12.529Z,1.10
2022-12-28T20:03:46.782Z,1.55
2022-12-28T20:06:28.697Z,1.48
2022-12-28T20:08:58.516Z,2.70
2022-12-28T20:11:25.697Z,2.17
2022-12-28T20:14:31.447Z,1.10
2022-12-28T20:24:39.273Z,1.52
2022-12-28T20:27:50.150Z,1.25
2022-12-28T20:30:37.080Z,2.20
2022-12-28T20:33:03.853Z,1.60
2022-12-28T20:35:30.498Z,1.48
2022-12-28T20:37:57.119Z,1.58
2022-12-28T20:44:20.271Z,1.63
2022-12-28T20:46:47.060Z,1.48
2022-12-28T20:53:00.663Z,1.50
2022-12-28T20:56:06.617Z,1.83
2022-12-28T20:59:35.235Z,2.70
2022-12-28T21:02:02.142Z,2.45
2022-12-28T21:08:19.032Z,2.38
2022-12-28T21:11:17.444Z,2.53
2022-12-28T21:13:45.054Z,2.75
2022-12-28T21:16:13.585Z,3.03
2022-12-28T21:18:40.755Z,2.30
2022-12-28T21:21:14.485Z,2.80
2022-12-28T21:23:41.172Z,3.17
2022-12-28T21:30:10.942Z,3.83
2022-12-28T21:32:37.548Z,3.22
2022-12-28T21:35:04.582Z,2.60
2022-12-28T21:41:42.041Z,2.47
2022-12-28T21:45:03.756Z,2.08
2022-12-28T21:47:31.786Z,2.80
2022-12-28T21:49:58.462Z,3.08
2022-12-28T21:52:46.898Z,2.22
2022-12-28T21:58:16.003Z,1.98
2022-12-28T22:01:01.005Z,2.80
2022-12-28T22:03:46.372Z,2.20
2022-12-28T22:06:32.671Z,2.17
2022-12-28T22:09:23.751Z,1.80
2022-12-28T22:12:36.097Z,2.00
2022-12-28T22:15:30.621Z,3.08
2022-12-28T22:18:19.272Z,1.98
2022-12-28T22:20:56.729Z,1.65
2022-12-28T22:23:23.957Z,2.00
2022-12-28T22:25:51.640Z,1.73
2022-12-28T22:28:18.325Z,1.77
2022-12-28T22:31:06.054Z,1.55
2022-12-28T22:33:43.238Z,1.38
2022-12-28T22:36:18.064Z,1.20
2022-12-28T22:38:45.039Z,1.23
2022-12-28T22:41:30.194Z,2.83
2022-12-28T22:43:56.850Z,1.35
2022-12-28T22:46:23.522Z,1.17
2022-12-28T22:48:50.504Z,1.67
2022-12-28T22:51:26.525Z,1.60
2022-12-28T22:58:14.357Z,1.10
2022-12-28T23:04:22.440Z,1.17
2022-12-28T23:07:03.923Z,1.38
2022-12-28T23:09:31.449Z,1.10
2022-12-28T23:11:58.515Z,1.95
2022-12-28T23:14:49.755Z,1.45
2022-12-28T23:17:36.802Z,1.80
2022-12-28T23:20:22.135Z,1.50
2022-12-28T23:23:07.594Z,3.08
2022-12-28T23:25:58.502Z,1.50
2022-12-28T23:28:25.996Z,2.35
2022-12-28T23:30:56.597Z,1.65
2022-12-28T23:33:23.924Z,1.20
2022-12-28T23:35:50.845Z,1.48
2022-12-28T23:38:56.289Z,2.05
2022-12-28T23:41:41.761Z,1.73
2022-12-28T23:44:08.778Z,1.45
2022-12-28T23:46:45.295Z,1.13
2022-12-28T23:53:39.933Z,1.10
2022-12-28T23:57:06.412Z,1.60
2022-12-28T23:59:33.129Z,1.38
